Time;durP1;ratioP1;P1;durP2;ratioP2;P2;SDS_P1;SDS_P2;PMS_P1;PMS_P2;Temp;Humidity;BMP_temperature;BMP_pressure;BME280_temperature;BME280_humidity;BME280_pressure;Samples;Min_cycle;Max_cycle;Signal;HPM_P1;HPM_P2
2024/02/07 00:01:40;;;;;;;152.40;75.80;;;;;;;10.21;74.42;98827.55;101835;1293;68182;-59
2024/02/07 00:04:27;;;;;;;3.50;2.00;;;;;;;10.26;74.02;98828.57;101958;1292;71560;-59
2024/02/07 00:07:13;;;;;;;;;;;;;;;10.30;74.10;98818.77;101948;1297;61401;-58
2024/02/07 00:10:00;;;;;;;8.70;4.00;;;;;;;10.32;73.91;98824.70;101953;1297;61397;-57
2024/02/07 00:12:47;;;;;;;6.10;3.30;;;;;;;10.36;73.85;98823.84;101984;1292;74048;-58
2024/02/07 00:15:33;;;;;;;5.10;2.30;;;;;;;10.36;73.71;98804.55;101947;1298;68516;-59
2024/02/07 00:18:20;;;;;;;139.90;68.90;;;;;;;10.35;73.79;98802.70;101939;1295;74030;-59
2024/02/07 00:21:07;;;;;;;6.10;2.80;;;;;;;10.35;73.73;98800.63;101921;1297;61420;-58
2024/02/07 00:23:53;;;;;;;128.00;33.70;;;;;;;10.35;73.57;98802.66;101956;1298;61394;-58
2024/02/07 00:26:40;;;;;;;5.30;2.40;;;;;;;10.37;73.51;98805.19;101893;1297;75957;-58
2024/02/07 00:29:27;;;;;;;1999.90;391.80;;;;;;;10.39;73.48;98795.81;101976;1292;67348;-59
2024/02/07 00:32:14;;;;;;;14.70;3.50;;;;;;;10.41;73.27;98796.55;101984;1295;74136;-60
2024/02/07 00:35:01;;;;;;;8.30;2.50;;;;;;;10.41;73.45;98795.35;101965;1296;61334;-58
2024/02/07 00:37:48;;;;;;;16.80;3.20;;;;;;;10.41;73.85;98796.73;101959;1297;61579;-60
2024/02/07 00:40:34;;;;;;;871.30;301.40;;;;;;;10.38;73.82;98790.66;101940;1297;74510;-58
2024/02/07 00:43:21;;;;;;;4.10;1.40;;;;;;;10.37;73.92;98784.67;101946;1295;67271;-58
2024/02/07 00:46:08;;;;;;;5.60;1.50;;;;;;;10.33;74.06;98786.23;101939;1298;73413;-58
2024/02/07 00:48:56;;;;;;;183.60;50.60;;;;;;;10.31;74.27;98783.75;101971;1297;61274;-58
2024/02/07 00:51:43;;;;;;;3.40;1.40;;;;;;;10.31;74.05;98782.73;101948;1298;62295;-59
2024/02/07 00:54:29;;;;;;;9.90;3.40;;;;;;;10.32;74.25;98781.99;101969;1298;74774;-59
2024/02/07 00:57:16;;;;;;;3.10;1.70;;;;;;;10.30;74.23;98785.67;101946;1298;70011;-59
2024/02/07 01:00:04;;;;;;;63.50;27.30;;;;;;;10.30;74.37;98781.55;101887;1295;72023;-60
2024/02/07 01:02:51;;;;;;;6.10;2.40;;;;;;;10.28;75.03;98779.90;102635;1297;61196;-59
2024/02/07 01:05:37;;;;;;;5.00;2.00;;;;;;;10.22;75.18;98777.05;101986;1291;61167;-58
2024/02/07 01:08:24;;;;;;;2.80;1.50;;;;;;;10.17;75.25;98770.40;101989;1305;74850;-59
2024/02/07 01:11:11;;;;;;;5.90;2.70;;;;;;;10.15;75.02;98765.13;101928;1294;67387;-59
2024/02/07 01:13:58;;;;;;;20.10;3.10;;;;;;;10.16;75.17;98767.48;101994;1298;76494;-58
2024/02/07 01:16:44;;;;;;;4.50;1.90;;;;;;;10.14;75.23;98765.66;102066;1294;61203;-58
2024/02/07 01:19:31;;;;;;;;;;;;;;;10.12;75.45;98758.02;102123;1297;62590;-59
2024/02/07 01:22:17;;;;;;;4.10;1.70;;;;;;;10.06;75.71;98748.99;102018;1298;73924;-58
2024/02/07 01:25:05;;;;;;;4.10;1.60;;;;;;;10.01;76.12;98755.57;102004;1295;70023;-58
2024/02/07 01:27:53;;;;;;;777.40;238.30;;;;;;;9.99;76.31;98749.31;102177;1295;71401;-58
2024/02/07 01:30:39;;;;;;;6.30;2.80;;;;;;;10.00;76.35;98741.36;102291;1297;61651;-59
2024/02/07 01:33:26;;;;;;;6.40;1.70;;;;;;;10.02;76.22;98754.70;102002;1293;64673;-58
2024/02/07 01:36:13;;;;;;;;;;;;;;;10.02;76.55;98748.49;102056;1295;72892;-59
2024/02/07 01:39:04;;;;;;;21.00;7.40;;;;;;;9.99;76.63;98742.75;101990;1297;68451;-59
2024/02/07 01:41:57;;;;;;;17.70;5.50;;;;;;;9.99;76.65;98734.87;101997;1295;73995;-59
2024/02/07 01:44:43;;;;;;;98.20;25.00;;;;;;;9.98;76.76;98736.27;102013;1293;61742;-59
2024/02/07 01:47:30;;;;;;;;;;;;;;;9.96;76.87;98732.91;102008;1296;61270;-58
2024/02/07 01:50:17;;;;;;;3.90;1.70;;;;;;;9.93;77.17;98729.58;101941;1292;74012;-58
2024/02/07 01:53:06;;;;;;;2.50;1.40;;;;;;;9.89;77.27;98723.40;102039;1301;67408;-58
2024/02/07 01:55:53;;;;;;;9.30;3.30;;;;;;;9.86;77.41;98732.34;102574;1292;71189;-58
2024/02/07 01:58:39;;;;;;;5.10;4.00;;;;;;;9.83;77.67;98733.84;101998;1296;61279;-58
2024/02/07 02:01:26;;;;;;;5.10;1.60;;;;;;;9.78;78.21;98756.79;101948;1302;61339;-58
2024/02/07 02:04:13;;;;;;;5.00;1.80;;;;;;;9.64;78.83;98814.83;102025;1295;76026;-56
2024/02/07 02:07:00;;;;;;;1.80;0.30;;;;;;;9.26;80.59;98860.02;102070;1296;67643;-58
2024/02/07 02:09:47;;;;;;;1.10;0.40;;;;;;;8.58;80.04;98855.94;102004;1293;74061;-57
2024/02/07 02:12:35;;;;;;;0.90;0.20;;;;;;;8.04;78.88;98869.65;102036;1298;61716;-57
2024/02/07 02:15:22;;;;;;;0.30;0.30;;;;;;;7.69;78.93;98868.10;102043;1295;61670;-59
2024/02/07 02:18:09;;;;;;;0.20;0.10;;;;;;;7.42;79.34;98869.30;101991;1297;73462;-59
2024/02/07 02:20:58;;;;;;;0.90;0.20;;;;;;;7.16;79.51;98864.45;102063;1294;67503;-59
2024/02/07 02:24:16;;;;;;;0.40;0.20;;;;;;;6.92;79.80;98874.92;102041;1296;73988;-58
2024/02/07 02:27:27;;;;;;;0.50;0.50;;;;;;;6.66;80.25;98881.19;102041;1292;62378;-59
2024/02/07 02:30:31;;;;;;;1.00;0.50;;;;;;;6.38;80.17;98888.29;102115;1305;61605;-58
2024/02/07 02:33:18;;;;;;;1.20;0.60;;;;;;;6.20;80.08;98894.25;102448;1295;74011;-57
2024/02/07 02:36:06;;;;;;;0.80;0.80;;;;;;;6.03;80.55;98896.08;102004;1298;70043;-58
2024/02/07 02:38:53;;;;;;;1.80;1.20;;;;;;;5.86;80.36;98898.67;102031;1295;71747;-58
2024/02/07 02:41:39;;;;;;;1.90;1.20;;;;;;;5.73;80.88;98901.57;102845;1292;61401;-58
2024/02/07 02:44:26;;;;;;;;;;;;;;;5.59;80.43;98902.95;102063;1298;61663;-58
2024/02/07 02:47:14;;;;;;;1.90;1.20;;;;;;;5.49;80.51;98900.27;102020;1292;72310;-58
2024/02/07 02:50:01;;;;;;;1.60;0.90;;;;;;;5.37;80.86;98905.48;101963;1295;71385;-58
2024/02/07 02:52:47;;;;;;;1.60;1.00;;;;;;;5.27;80.75;98907.09;102018;1292;74035;-59
2024/02/07 02:55:34;;;;;;;2.30;1.30;;;;;;;5.20;80.95;98907.75;101948;1297;61384;-61
2024/02/07 02:58:21;;;;;;;3.40;1.10;;;;;;;5.14;81.54;98906.02;102023;1298;62575;-58
2024/02/07 03:01:09;;;;;;;1.90;1.10;;;;;;;5.08;82.11;98916.24;101959;1292;73764;-58
2024/02/07 03:03:56;;;;;;;1.00;0.70;;;;;;;5.01;82.31;98918.77;101942;1298;69914;-57
2024/02/07 03:06:58;;;;;;;1.90;0.50;;;;;;;4.94;82.56;98921.81;101994;1295;72055;-59
2024/02/07 03:09:49;;;;;;;0.50;0.10;;;;;;;4.84;82.40;98929.00;102037;1298;61483;-58
2024/02/07 03:12:35;;;;;;;1.10;0.70;;;;;;;4.77;82.72;98929.31;101999;1292;61340;-57
2024/02/07 03:15:22;;;;;;;0.70;0.20;;;;;;;4.68;82.98;98936.67;101968;1295;76017;-59
2024/02/07 03:18:10;;;;;;;0.60;0.60;;;;;;;4.56;83.13;98937.95;101999;1298;67606;-59
2024/02/07 03:20:56;;;;;;;0.00;0.00;;;;;;;4.44;83.07;98942.94;101932;1298;72076;-59
2024/02/07 03:23:44;;;;;;;1.90;0.30;;;;;;;4.36;82.89;98942.40;102014;1298;61269;-57
2024/02/07 03:26:31;;;;;;;0.30;0.10;;;;;;;4.28;83.30;98942.54;101995;1292;61601;-59
2024/02/07 03:29:18;;;;;;;1612.00;301.60;;;;;;;4.18;83.42;98963.19;101652;1293;426100;-57
2024/02/07 03:32:04;;;;;;;0.10;0.00;;;;;;;4.03;83.65;98962.95;102053;1294;67527;-57
2024/02/07 03:34:54;;;;;;;0.00;0.00;;;;;;;3.93;83.89;98968.38;101938;1295;74072;-59
2024/02/07 03:37:41;;;;;;;0.20;0.00;;;;;;;3.84;83.60;98965.96;101946;1297;61463;-58
2024/02/07 03:40:28;;;;;;;0.60;0.00;;;;;;;3.80;83.47;98967.39;101983;1296;61595;-58
2024/02/07 03:43:15;;;;;;;0.00;0.00;;;;;;;3.73;83.31;98973.97;102042;1295;75194;-58
2024/02/07 03:46:08;;;;;;;0.40;0.10;;;;;;;3.70;83.53;98972.81;101890;1295;67316;-57
2024/02/07 03:48:54;;;;;;;2.40;0.20;;;;;;;3.68;84.28;98973.19;103725;1292;71401;-58
2024/02/07 03:51:41;;;;;;;0.40;0.10;;;;;;;3.63;84.69;98977.37;101932;1295;61877;-58
2024/02/07 03:54:27;;;;;;;0.10;0.00;;;;;;;3.58;84.89;98972.67;102021;1297;62013;-59
2024/02/07 03:57:14;;;;;;;1.10;0.00;;;;;;;3.53;84.80;98969.35;101968;1295;73876;-58
2024/02/07 04:00:06;;;;;;;0.50;0.10;;;;;;;3.49;84.81;98968.73;101959;1292;67891;-57
2024/02/07 04:02:54;;;;;;;0.50;0.10;;;;;;;3.42;85.12;98964.55;101958;1293;73914;-57
2024/02/07 04:05:40;;;;;;;22.00;19.90;;;;;;;3.32;85.13;98958.21;101916;1297;61282;-57
2024/02/07 04:08:27;;;;;;;1.20;0.20;;;;;;;3.28;85.47;98957.08;101918;1294;61609;-58
2024/02/07 05:15:31;;;;;;;117.10;30.40;;;;;;;3.00;88.28;98961.38;101989;1292;69164;-58
2024/02/07 05:18:19;;;;;;;3.50;0.70;;;;;;;3.01;88.40;98958.31;101953;1295;74160;-57
2024/02/07 05:21:12;;;;;;;4.80;1.30;;;;;;;2.98;88.58;98956.96;101879;1292;61273;-58
2024/02/07 05:23:59;;;;;;;5.20;2.10;;;;;;;2.98;88.61;98948.64;106039;1292;59081;-60
2024/02/07 05:26:45;;;;;;;2.10;0.80;;;;;;;2.97;88.85;98937.59;106038;1292;74089;-58
2024/02/07 05:29:31;;;;;;;3.10;1.00;;;;;;;2.98;88.39;98927.70;105979;1291;68368;-59
2024/02/07 05:32:17;;;;;;;1.90;0.40;;;;;;;2.99;88.40;98933.30;106044;1294;71995;-60
2024/02/07 05:35:03;;;;;;;62.10;32.80;;;;;;;3.01;88.64;98941.95;106011;1292;58805;-58
2024/02/07 05:37:50;;;;;;;4.90;0.70;;;;;;;3.06;88.55;98948.89;105945;1294;58871;-59
2024/02/07 05:40:37;;;;;;;4.00;0.70;;;;;;;3.05;88.47;98956.55;105955;1295;75394;-59
2024/02/07 05:43:23;;;;;;;1.20;0.40;;;;;;;3.10;88.52;98954.27;105994;1291;67202;-58
2024/02/07 05:46:09;;;;;;;1.40;0.50;;;;;;;3.14;88.25;98957.08;106009;1291;71390;-58
2024/02/07 05:48:55;;;;;;;2.20;0.40;;;;;;;3.18;88.29;98961.47;105996;1292;59252;-59
2024/02/07 05:51:41;;;;;;;542.50;255.00;;;;;;;3.21;88.08;98972.16;105261;1292;61320;-57
2024/02/07 05:54:27;;;;;;;1.00;0.50;;;;;;;3.23;87.88;98973.15;102385;1295;73557;-57
2024/02/07 05:57:14;;;;;;;8.20;1.40;;;;;;;3.24;87.89;98976.02;102323;1292;67712;-59
2024/02/07 06:00:05;;;;;;;2.90;1.40;;;;;;;3.25;87.93;98973.80;102374;1298;71516;-58
2024/02/07 06:02:54;;;;;;;1.40;0.70;;;;;;;3.27;87.72;98976.16;102313;1295;61407;-57
2024/02/07 06:05:40;;;;;;;2.80;0.60;;;;;;;3.24;87.95;98973.98;104127;1291;61269;-58
2024/02/07 06:08:27;;;;;;;3.70;0.60;;;;;;;3.23;88.06;98970.93;102351;1292;76037;-57
2024/02/07 06:11:13;;;;;;;6.50;0.90;;;;;;;3.19;88.23;98967.92;102303;1296;68123;-57
2024/02/07 06:14:00;;;;;;;3.80;0.50;;;;;;;3.16;88.26;98962.67;102407;1296;71214;-57
2024/02/07 06:16:47;;;;;;;4.20;0.50;;;;;;;3.11;88.50;98957.16;102305;1293;62367;-57
2024/02/07 06:19:33;;;;;;;2.40;0.40;;;;;;;3.10;88.49;98962.79;102244;1293;61843;-59
2024/02/07 06:22:20;;;;;;;146.10;55.60;;;;;;;3.05;88.90;98961.33;102324;1292;74031;-59
2024/02/07 06:25:07;;;;;;;1.60;0.60;;;;;;;3.00;89.08;98958.48;102269;1293;67419;-57
2024/02/07 06:27:53;;;;;;;2.80;0.50;;;;;;;2.95;89.28;98952.42;102314;1293;73967;-58
2024/02/07 06:30:40;;;;;;;8.10;2.60;;;;;;;2.90;89.57;98946.52;102327;1298;61182;-59
2024/02/07 06:33:27;;;;;;;2.90;0.90;;;;;;;2.85;89.98;98930.58;102273;1295;61756;-57
2024/02/07 06:36:13;;;;;;;2.50;0.40;;;;;;;2.82;89.84;98922.95;102280;1292;73789;-57
2024/02/07 06:39:00;;;;;;;5.50;0.80;;;;;;;2.79;90.54;98936.77;102342;1292;71412;-58
2024/02/07 06:41:46;;;;;;;3.10;1.10;;;;;;;2.77;90.39;98952.11;102352;1298;75100;-59
2024/02/07 06:44:33;;;;;;;3.50;1.30;;;;;;;2.76;90.36;98950.42;102347;1292;61337;-59
2024/02/07 06:47:20;;;;;;;3.90;1.10;;;;;;;2.75;90.52;98951.11;102376;1292;61785;-58
2024/02/07 06:50:06;;;;;;;;;;;;;;;2.72;91.04;98950.63;102343;1292;74333;-58
2024/02/07 06:52:53;;;;;;;3.10;0.60;;;;;;;2.70;90.65;98955.08;102373;1293;70047;-59
2024/02/07 06:55:39;;;;;;;3.40;0.50;;;;;;;2.71;90.85;98953.55;102411;1291;72499;-59
2024/02/07 06:58:29;;;;;;;4.60;1.10;;;;;;;2.68;91.18;98960.54;102373;1292;63478;-59
2024/02/07 07:01:17;;;;;;;3.60;1.00;;;;;;;2.67;91.69;98949.84;102378;1293;61306;-59
2024/02/07 07:04:04;;;;;;;4.70;1.60;;;;;;;2.65;91.75;98968.23;102414;1292;73894;-59
2024/02/07 07:06:50;;;;;;;4.40;1.30;;;;;;;2.68;91.32;98975.35;102437;1295;70145;-58
2024/02/07 07:09:37;;;;;;;6.20;2.10;;;;;;;2.69;91.59;98975.17;102263;1292;72889;-58
2024/02/07 07:12:24;;;;;;;9.30;2.40;;;;;;;2.67;91.59;98981.98;102321;1293;61279;-56
2024/02/07 07:15:13;;;;;;;5.10;1.80;;;;;;;2.68;92.06;98982.15;102379;1295;60864;-55
2024/02/07 07:18:00;;;;;;;2.70;1.40;;;;;;;2.67;91.98;98987.27;102294;1295;76513;-56
2024/02/07 07:20:47;;;;;;;4.10;1.30;;;;;;;2.69;91.53;98984.02;102229;1292;67851;-56
2024/02/07 07:23:34;;;;;;;4.00;1.40;;;;;;;2.73;91.59;98980.73;102290;1297;73282;-55
2024/02/07 07:26:20;;;;;;;463.90;309.50;;;;;;;2.74;91.69;98984.98;102370;1295;61295;-58
2024/02/07 07:29:08;;;;;;;1.80;0.90;;;;;;;2.76;92.09;98988.86;102414;1292;62817;-57
2024/02/07 07:31:57;;;;;;;2.70;1.10;;;;;;;2.78;91.92;98988.00;102310;1296;76104;-57
2024/02/07 07:34:43;;;;;;;51.30;21.60;;;;;;;2.82;92.02;98993.92;102327;1292;67430;-54
2024/02/07 07:37:30;;;;;;;2.20;1.00;;;;;;;2.82;91.79;99001.06;102415;1295;71918;-57
2024/02/07 07:40:19;;;;;;;4.70;0.90;;;;;;;2.86;91.89;99002.39;102356;1295;61397;-55
2024/02/07 07:43:05;;;;;;;4.70;1.10;;;;;;;2.88;92.02;98997.92;102386;1291;61246;-56
2024/02/07 07:45:52;;;;;;;140.50;49.40;;;;;;;2.92;92.05;98991.77;102426;1292;74086;-56
2024/02/07 07:48:39;;;;;;;4.20;2.40;;;;;;;2.93;92.33;98997.20;102360;1292;69959;-57
2024/02/07 07:51:26;;;;;;;7.50;1.30;;;;;;;2.93;92.41;99003.84;102312;1293;73862;-56
2024/02/07 07:54:12;;;;;;;8.20;2.10;;;;;;;2.96;92.19;99004.14;102395;1296;61278;-56
2024/02/07 07:56:59;;;;;;;4.00;1.60;;;;;;;3.00;92.27;99006.31;102331;1292;61192;-57
2024/02/07 07:59:46;;;;;;;5.00;2.10;;;;;;;3.04;92.22;99010.35;102363;1291;76073;-57
2024/02/07 08:02:33;;;;;;;21.80;6.80;;;;;;;3.05;92.21;99012.73;102429;1298;70386;-57
2024/02/07 08:05:19;;;;;;;3.80;0.90;;;;;;;3.07;92.05;99017.30;102286;1292;73949;-57
2024/02/07 08:08:07;;;;;;;40.90;9.50;;;;;;;3.06;92.24;99020.54;102374;1297;61278;-56
2024/02/07 08:10:53;;;;;;;6.30;1.60;;;;;;;3.06;92.37;99020.54;105968;1291;59359;-58
2024/02/07 08:13:39;;;;;;;4.40;1.10;;;;;;;3.07;92.27;99025.47;105971;1291;74132;-57
2024/02/07 08:16:25;;;;;;;5.80;1.60;;;;;;;3.11;92.19;99020.83;105914;1291;67410;-56
2024/02/07 08:19:15;;;;;;;4.00;1.00;;;;;;;3.15;92.37;99024.16;105906;1291;71244;-58
2024/02/07 08:22:01;;;;;;;3.30;1.00;;;;;;;3.18;92.26;99018.50;105915;1292;58448;-56
2024/02/07 08:24:47;;;;;;;62.80;27.40;;;;;;;3.22;92.26;99015.90;105952;1291;59947;-57
2024/02/07 08:27:33;;;;;;;4.00;1.10;;;;;;;3.25;92.25;99020.13;105903;1291;73971;-57
2024/02/07 08:30:21;;;;;;;4.50;1.30;;;;;;;3.26;92.24;99025.39;105966;1292;66361;-56
2024/02/07 08:33:07;;;;;;;2.80;1.00;;;;;;;3.28;92.27;99028.59;105900;1292;71373;-56
2024/02/07 08:35:53;;;;;;;10.50;2.30;;;;;;;3.32;92.26;99023.09;105903;1291;59136;-57
2024/02/07 08:38:41;;;;;;;9.60;1.70;;;;;;;3.37;92.38;99032.92;105963;1291;58932;-57
2024/02/07 08:41:27;;;;;;;12.90;3.90;;;;;;;3.41;92.23;99037.80;105944;1292;73754;-56
2024/02/07 08:44:13;;;;;;;67.40;22.10;;;;;;;3.41;92.29;99038.66;105915;1292;67427;-56
2024/02/07 08:46:59;;;;;;;6.90;2.00;;;;;;;3.43;92.31;99046.13;105950;1292;71262;-56
2024/02/07 08:49:45;;;;;;;7.60;2.00;;;;;;;3.48;92.30;99042.48;105978;1291;58304;-57
2024/02/07 08:52:31;;;;;;;5.20;1.40;;;;;;;3.55;92.16;99046.84;105944;1291;58941;-57
2024/02/07 08:55:17;;;;;;;9.40;1.50;;;;;;;3.57;92.20;99040.51;105939;1292;72356;-56
2024/02/07 08:58:03;;;;;;;20.70;8.80;;;;;;;3.62;92.12;99035.49;105930;1291;68432;-58
2024/02/07 09:00:49;;;;;;;;;;;;;;;3.72;92.27;99035.16;105783;1294;72032;-57
2024/02/07 09:03:35;;;;;;;7.10;1.90;;;;;;;3.83;91.92;99037.56;105949;1292;59139;-57
2024/02/07 09:06:22;;;;;;;63.70;14.20;;;;;;;3.89;92.02;99036.61;106020;1291;58872;-56
2024/02/07 09:09:08;;;;;;;9.60;1.90;;;;;;;3.97;91.73;99038.05;105905;1292;72424;-58
2024/02/07 09:11:54;;;;;;;7.10;1.40;;;;;;;3.97;91.81;99039.58;105939;1292;66415;-58
2024/02/07 09:14:40;;;;;;;6.80;1.60;;;;;;;4.03;91.70;99043.59;105938;1291;72323;-57
2024/02/07 09:17:26;;;;;;;13.10;2.30;;;;;;;4.02;91.28;99047.02;105942;1292;58779;-56
2024/02/07 09:20:15;;;;;;;6.20;1.90;;;;;;;4.02;91.30;99052.65;105917;1292;58964;-57
2024/02/07 09:23:01;;;;;;;9.50;2.20;;;;;;;3.99;91.21;99053.02;105910;1291;73313;-56
2024/02/07 09:25:47;;;;;;;4.50;1.50;;;;;;;4.00;91.17;99046.87;105950;1291;67434;-56
2024/02/07 09:28:33;;;;;;;31.10;19.40;;;;;;;3.97;91.21;99050.48;105929;1292;71401;-58
2024/02/07 09:31:18;;;;;;;4.90;1.90;;;;;;;3.96;90.97;99040.63;105876;1292;59341;-57
2024/02/07 09:34:04;;;;;;;11.90;1.80;;;;;;;4.00;91.17;99046.36;105944;1292;58832;-57
2024/02/07 09:36:50;;;;;;;7.60;1.80;;;;;;;4.02;91.21;99045.98;105981;1291;73473;-58
2024/02/07 09:39:36;;;;;;;11.60;2.00;;;;;;;4.08;91.22;99049.31;105951;1291;67262;-56
2024/02/07 09:42:25;;;;;;;7.00;1.30;;;;;;;4.13;91.05;99052.14;105923;1292;71962;-58
2024/02/07 09:45:13;;;;;;;8.00;2.10;;;;;;;4.17;91.14;99059.38;105913;1291;58653;-57
2024/02/07 09:48:25;;;;;;;8.40;2.20;;;;;;;4.21;90.93;99055.90;105965;1291;58652;-59
2024/02/07 09:51:14;;;;;;;57.70;21.20;;;;;;;4.22;90.58;99059.12;105946;1291;72329;-56
2024/02/07 09:54:01;;;;;;;9.70;3.30;;;;;;;4.23;90.68;99062.02;102703;1295;67479;-55
2024/02/07 09:56:49;;;;;;;8.10;2.50;;;;;;;4.28;90.68;99067.40;102232;1295;73974;-57
2024/02/07 09:59:36;;;;;;;9.50;2.80;;;;;;;4.32;90.56;99068.86;102256;1292;61290;-55
2024/02/07 10:02:26;;;;;;;7.90;2.40;;;;;;;4.35;90.55;99062.16;102407;1295;63345;-57
2024/02/07 10:05:17;;;;;;;16.20;5.40;;;;;;;4.40;90.42;99067.90;102234;1296;72775;-57
2024/02/07 10:08:04;;;;;;;13.80;5.20;;;;;;;4.34;89.91;99069.52;102274;1292;69641;-56
2024/02/07 10:10:51;;;;;;;13.20;3.80;;;;;;;4.36;90.29;99071.87;105824;1294;72031;-56
2024/02/07 10:13:38;;;;;;;124.90;38.00;;;;;;;4.40;90.21;99071.46;105964;1291;58404;-57
2024/02/07 10:16:24;;;;;;;8.30;2.00;;;;;;;4.43;89.84;99066.82;105938;1292;59788;-59
2024/02/07 10:19:11;;;;;;;16.80;2.60;;;;;;;4.46;89.99;99068.81;102536;1294;72495;-57
2024/02/07 10:21:58;;;;;;;649.30;154.30;;;;;;;4.48;89.78;99069.48;102343;1294;67951;-56
2024/02/07 10:24:45;;;;;;;31.90;28.50;;;;;;;4.48;89.68;99066.57;102470;1295;72795;-57
2024/02/07 10:27:32;;;;;;;49.30;15.70;;;;;;;4.49;89.38;99065.70;102311;1297;61266;-57
2024/02/07 10:30:18;;;;;;;73.90;19.00;;;;;;;4.46;89.05;99071.20;102309;1292;63410;-56
2024/02/07 10:33:05;;;;;;;34.50;26.10;;;;;;;4.45;89.12;99057.23;102208;1292;75110;-58
2024/02/07 10:36:02;;;;;;;10.40;5.50;;;;;;;4.48;89.24;99056.67;102285;1292;68645;-55
2024/02/07 10:38:52;;;;;;;9.00;2.20;;;;;;;4.50;89.19;99059.71;102350;1297;73489;-57
2024/02/07 10:41:38;;;;;;;135.20;48.50;;;;;;;4.51;88.84;99057.30;102288;1292;61302;-58
2024/02/07 10:44:25;;;;;;;7.60;2.80;;;;;;;4.51;88.91;99062.23;102319;1292;61666;-59
2024/02/07 10:47:11;;;;;;;11.50;3.10;;;;;;;4.57;89.10;99059.94;102284;1291;72641;-56
2024/02/07 10:49:58;;;;;;;9.10;2.10;;;;;;;4.64;89.16;99064.60;102337;1293;69869;-56
2024/02/07 10:52:45;;;;;;;18.40;5.20;;;;;;;4.70;88.68;99067.54;102384;1291;74118;-57
2024/02/07 10:55:32;;;;;;;11.70;2.50;;;;;;;4.74;88.53;99068.48;102362;1291;61303;-56
2024/02/07 10:58:24;;;;;;;36.40;4.90;;;;;;;4.80;88.54;99059.17;102322;1292;61285;-57
2024/02/07 11:01:11;;;;;;;9.10;2.60;;;;;;;4.83;88.02;99061.68;105948;1292;73261;-57
2024/02/07 11:03:57;;;;;;;;;;;;;;;4.81;87.93;99055.91;105942;1292;66205;-57
2024/02/07 11:06:44;;;;;;;6.70;1.70;;;;;;;4.82;87.91;99055.04;105968;1291;71259;-56
2024/02/07 11:09:29;;;;;;;;;;;;;;;4.90;88.20;99059.16;105912;1291;58801;-58
2024/02/07 11:12:16;;;;;;;11.60;5.90;;;;;;;4.95;87.57;99061.80;104471;1293;60150;-57
2024/02/07 11:15:03;;;;;;;9.50;2.30;;;;;;;4.97;87.44;99067.56;101883;1292;73695;-56
2024/02/07 11:17:49;;;;;;;8.00;2.50;;;;;;;4.99;87.31;99068.89;103748;1292;67415;-58
2024/02/07 11:20:37;;;;;;;9.00;2.60;;;;;;;5.04;87.51;99070.69;101858;1291;70594;-57
2024/02/07 11:23:31;;;;;;;792.00;202.40;;;;;;;5.12;87.60;99068.33;101753;1297;61407;-55
2024/02/07 11:26:19;;;;;;;11.10;2.80;;;;;;;5.12;86.47;99060.98;101819;1292;62598;-57
2024/02/07 11:29:05;;;;;;;10.00;3.00;;;;;;;5.10;87.06;99068.03;101798;1292;76038;-56
2024/02/07 11:31:53;;;;;;;7.10;2.20;;;;;;;5.11;86.75;99071.23;101827;1297;67921;-58
2024/02/07 11:34:41;;;;;;;7.30;2.00;;;;;;;5.12;87.07;99079.61;102288;1295;72066;-58
2024/02/07 11:37:38;;;;;;;13.40;2.30;;;;;;;5.12;87.24;99080.12;102349;1291;61368;-56
2024/02/07 11:40:26;;;;;;;9.90;2.40;;;;;;;5.07;87.55;99086.17;103706;1292;62060;-58
2024/02/07 11:43:23;;;;;;;4.40;1.80;;;;;;;5.07;87.76;99097.45;102376;1295;75234;-59
2024/02/07 11:46:12;;;;;;;5.50;1.90;;;;;;;5.06;87.87;99102.58;102449;1292;67848;-58
2024/02/07 11:49:00;;;;;;;6.10;1.00;;;;;;;5.05;87.34;99108.93;102379;1292;72832;-57
2024/02/07 11:51:58;;;;;;;3.40;0.90;;;;;;;4.98;87.12;99115.02;102289;1294;63205;-56
2024/02/07 11:54:48;;;;;;;1.60;0.50;;;;;;;5.00;87.15;99122.50;105933;1291;60543;-58
2024/02/07 11:57:35;;;;;;;2.70;1.00;;;;;;;4.97;86.47;99130.24;104806;1292;74697;-56
2024/02/07 12:00:22;;;;;;;2.00;0.90;;;;;;;4.94;86.22;99128.75;102513;1291;67281;-57
2024/02/07 12:03:12;;;;;;;3.90;1.00;;;;;;;4.90;85.96;99132.40;105921;1290;71389;-58
2024/02/07 12:05:59;;;;;;;3.60;0.90;;;;;;;4.88;85.89;99130.23;105909;1292;59475;-57
2024/02/07 12:08:45;;;;;;;4.20;1.20;;;;;;;4.86;85.83;99123.09;103986;1293;61282;-57
2024/02/07 12:11:32;;;;;;;4.60;1.30;;;;;;;4.88;85.57;99122.88;102327;1292;73666;-60
2024/02/07 12:14:19;;;;;;;7.50;1.40;;;;;;;4.89;85.03;99124.74;102622;1292;169571;-58
2024/02/07 12:17:06;;;;;;;;;;;;;;;4.87;84.86;99131.09;102347;1292;72105;-57
2024/02/07 12:20:00;;;;;;;2.90;0.60;;;;;;;4.86;84.75;99135.38;102312;1292;61397;-58
2024/02/07 12:22:46;;;;;;;4.50;0.70;;;;;;;4.87;83.47;99139.80;103260;1292;59267;-58
2024/02/07 12:25:33;;;;;;;3.80;0.80;;;;;;;4.97;85.22;99138.11;102249;1297;74362;-58
2024/02/07 12:28:19;;;;;;;7.80;2.60;;;;;;;5.08;84.20;99147.30;102365;1292;67488;-57
2024/02/07 12:31:06;;;;;;;139.60;67.80;;;;;;;4.99;83.61;99154.11;102342;1292;73952;-58
2024/02/07 12:33:52;;;;;;;;;;;;;;;4.87;83.54;99163.88;102355;1292;61199;-58
2024/02/07 12:36:39;;;;;;;7.40;1.60;;;;;;;4.77;83.17;99163.02;102268;1292;64131;-56
2024/02/07 12:39:27;;;;;;;;;;;;;;;4.74;83.37;99170.91;102347;1296;75947;-57
2024/02/07 12:42:16;;;;;;;3.00;1.30;;;;;;;4.75;83.44;99169.86;102287;1291;70343;-55
2024/02/07 12:45:02;;;;;;;6.30;0.90;;;;;;;4.78;82.32;99177.66;103517;1292;72592;-58
2024/02/07 12:47:49;;;;;;;37.00;9.80;;;;;;;4.78;82.47;99179.39;102284;1291;61643;-56
2024/02/07 12:50:36;;;;;;;6.00;0.80;;;;;;;4.76;81.86;99182.15;102333;1293;61378;-58
2024/02/07 12:53:22;;;;;;;7.20;1.60;;;;;;;4.73;80.99;99182.02;102340;1292;74567;-58
2024/02/07 12:56:18;;;;;;;6.30;1.10;;;;;;;4.71;81.33;99191.61;102332;1292;69653;-57
2024/02/07 12:59:05;;;;;;;7.20;1.00;;;;;;;4.69;80.65;99191.13;102321;1292;73992;-56
2024/02/07 13:01:55;;;;;;;5.30;1.10;;;;;;;4.65;81.04;99200.77;102384;1292;61299;-57
2024/02/07 13:04:43;;;;;;;7.50;1.40;;;;;;;4.64;81.26;99207.11;102341;1292;61142;-58
2024/02/07 13:07:29;;;;;;;8.80;1.10;;;;;;;4.66;80.85;99211.00;102280;1293;74140;-58
2024/02/07 13:10:16;;;;;;;5.10;1.20;;;;;;;4.68;81.98;99209.59;102337;1296;67455;-58
2024/02/07 13:13:04;;;;;;;7.10;1.30;;;;;;;4.76;81.54;99206.38;105929;1291;71433;-58
2024/02/07 13:15:50;;;;;;;7.50;1.70;;;;;;;4.75;81.24;99212.20;105963;1292;59123;-58
2024/02/07 13:18:36;;;;;;;7.40;1.50;;;;;;;4.75;81.47;99218.35;104913;1291;61340;-58
2024/02/07 13:21:22;;;;;;;4.70;1.20;;;;;;;4.80;81.91;99218.10;102269;1292;73459;-58
2024/02/07 13:24:18;;;;;;;4.80;1.20;;;;;;;4.86;82.30;99220.23;102319;1295;67231;-58
2024/02/07 13:27:04;;;;;;;8.90;1.50;;;;;;;4.86;81.34;99232.36;102360;1297;75373;-61
2024/02/07 13:29:51;;;;;;;7.00;1.20;;;;;;;4.78;80.72;99236.73;102323;1293;61381;-57
2024/02/07 13:32:37;;;;;;;13.30;1.60;;;;;;;4.75;80.57;99239.85;102357;1292;61588;-58
2024/02/07 13:35:24;;;;;;;3.40;1.10;;;;;;;4.66;78.89;99239.66;102333;1292;74834;-56
2024/02/07 13:38:11;;;;;;;3.00;1.10;;;;;;;4.61;78.61;99246.23;102287;1298;67393;-57
2024/02/07 13:40:57;;;;;;;4.60;0.80;;;;;;;4.60;78.83;99248.13;102301;1292;73337;-58
2024/02/07 13:43:45;;;;;;;10.50;1.20;;;;;;;4.61;77.60;99242.64;102363;1297;61283;-58
2024/02/07 13:46:31;;;;;;;5.20;1.00;;;;;;;4.54;78.06;99245.30;104721;1291;58803;-58
2024/02/07 13:49:18;;;;;;;7.60;0.80;;;;;;;4.51;77.33;99250.80;102265;1292;73577;-57
2024/02/07 13:52:05;;;;;;;42.90;4.20;;;;;;;4.44;77.31;99260.95;102339;1292;66781;-58
2024/02/07 13:54:52;;;;;;;6.00;1.10;;;;;;;4.42;77.34;99262.70;102364;1292;73067;-59
2024/02/07 13:57:38;;;;;;;4.50;0.90;;;;;;;4.41;77.58;99264.76;102281;1291;61208;-57
2024/02/07 14:00:25;;;;;;;4.20;0.90;;;;;;;4.41;77.19;99272.09;102323;1296;61377;-58
2024/02/07 14:03:11;;;;;;;6.70;1.20;;;;;;;4.37;76.69;99272.30;102285;1293;75983;-56
2024/02/07 14:05:59;;;;;;;5.50;1.40;;;;;;;4.35;76.72;99277.80;102428;1292;68111;-58
2024/02/07 14:08:45;;;;;;;5.50;0.80;;;;;;;4.32;76.13;99277.83;102187;1296;73250;-59
2024/02/07 14:11:32;;;;;;;7.30;1.30;;;;;;;4.25;75.76;99284.73;102253;1295;61266;-60